Apopka, Florida
Current Conditions -  °F | °C
As of 10:53 PM on Sunday 25 Jan 2015 (Local Time) from KORL Reporting Station
Clear Clear  
Wind Chill: 13°   Ceiling: Unl
Heat Index: 13°   Visibility: 10mi
Dew Point:   Wind: 5mph
Humidity: 77%   Direction: 200°SSW
Pressure: 29.96"   Gusts: NA
Location:  28.67°N, 81.51°W
Report Text: KORL 260353Z AUTO 20004KT 10SM CLR 13/09 A2996 RMK AO2 SLP151 T01280089
Loading
Personal Weather Stations






























Interactive Weather Map New forecast layout! Learn more

10-Day Weather Forecast

Advertisements
Track Severe Weather on mobile